Time;durP1;ratioP1;P1;durP2;ratioP2;P2;SDS_P1;SDS_P2;PMS_P1;PMS_P2;Temp;Humidity;BMP_temperature;BMP_pressure;BME280_temperature;BME280_humidity;BME280_pressure;Samples;Min_cycle;Max_cycle;Signal;HPM_P1;HPM_P2
2022/04/08 00:00:19;;;;;;;0.10;0.10;;;8.60;99.90;;;;;;5053375;28;20488;-72
2022/04/08 00:02:45;;;;;;;0.17;0.17;;;8.60;99.90;;;;;;5053725;28;20029;-72
2022/04/08 00:05:10;;;;;;;0.17;0.17;;;8.60;99.90;;;;;;5053004;28;20029;-72
2022/04/08 00:07:37;;;;;;;0.00;0.00;;;8.70;99.90;;;;;;5053341;28;20056;-73
2022/04/08 00:10:04;;;;;;;0.10;0.10;;;8.60;99.90;;;;;;5053572;28;20032;-73
2022/04/08 00:12:30;;;;;;;0.20;0.20;;;8.70;99.90;;;;;;5035363;28;20032;-73
2022/04/08 00:14:58;;;;;;;0.10;0.10;;;8.70;99.90;;;;;;5053079;28;20428;-72
2022/04/08 00:17:23;;;;;;;0.10;0.10;;;8.70;99.90;;;;;;5053065;28;20362;-72
2022/04/08 00:19:49;;;;;;;0.20;0.20;;;8.50;99.90;;;;;;5052939;28;20083;-72
2022/04/08 00:22:16;;;;;;;0.05;0.05;;;8.50;99.90;;;;;;5053046;28;20043;-72
2022/04/08 00:24:42;;;;;;;0.10;0.10;;;8.50;99.90;;;;;;5053066;28;20032;-73
2022/04/08 00:27:07;;;;;;;0.10;0.10;;;8.50;99.90;;;;;;5035705;28;20021;-72
2022/04/08 00:29:33;;;;;;;0.20;0.20;;;8.50;99.90;;;;;;5053869;28;20029;-73
2022/04/08 00:31:59;;;;;;;0.00;0.00;;;8.50;99.90;;;;;;5053006;28;20032;-74
2022/04/08 00:34:25;;;;;;;0.10;0.10;;;8.20;99.90;;;;;;5052722;28;20021;-74
2022/04/08 00:36:53;;;;;;;0.10;0.10;;;8.10;99.90;;;;;;5034554;28;20021;-74
2022/04/08 00:39:19;;;;;;;0.10;0.10;;;8.10;99.90;;;;;;5018229;28;20025;-74
2022/04/08 00:41:45;;;;;;;0.15;0.15;;;8.20;99.90;;;;;;5034785;28;20078;-74
2022/04/08 00:44:10;;;;;;;0.10;0.10;;;8.10;99.90;;;;;;5052544;28;20036;-74
2022/04/08 00:46:38;;;;;;;0.20;0.15;;;8.20;99.90;;;;;;5052234;28;20017;-74
2022/04/08 00:49:04;;;;;;;0.10;0.10;;;8.30;99.90;;;;;;5052424;28;20480;-74
2022/04/08 00:51:34;;;;;;;0.10;0.10;;;8.20;99.90;;;;;;5034708;28;20056;-74
2022/04/08 00:54:00;;;;;;;9.68;1.48;;;8.20;99.90;;;;;;5052272;28;20100;-74
2022/04/08 00:56:29;;;;;;;0.20;0.20;;;8.00;99.90;;;;;;5034189;28;20032;-74
2022/04/08 00:58:56;;;;;;;0.10;0.10;;;8.00;99.90;;;;;;5052269;28;20017;-73
2022/04/08 01:01:23;;;;;;;0.20;0.20;;;8.00;99.90;;;;;;5052145;28;20043;-74
2022/04/08 01:03:52;;;;;;;0.10;0.10;;;8.00;99.90;;;;;;5052100;28;20377;-74
2022/04/08 01:06:21;;;;;;;0.10;0.10;;;8.00;99.90;;;;;;5052467;28;20106;-74
2022/04/08 01:08:49;;;;;;;0.20;0.20;;;8.00;99.90;;;;;;5034306;28;20033;-74
2022/04/08 01:11:16;;;;;;;0.10;0.10;;;8.00;99.90;;;;;;5034415;28;20033;-74
2022/04/08 01:13:42;;;;;;;0.10;0.10;;;8.00;99.90;;;;;;5052145;28;20150;-73
2022/04/08 01:16:08;;;;;;;0.10;0.10;;;8.00;99.90;;;;;;5051686;28;20063;-74
2022/04/08 01:18:35;;;;;;;0.10;0.10;;;8.00;99.90;;;;;;5051444;28;20029;-74
2022/04/08 01:21:05;;;;;;;0.10;0.10;;;7.90;99.90;;;;;;5034203;28;20108;-74
2022/04/08 01:23:34;;;;;;;0.10;0.10;;;7.90;99.90;;;;;;5034251;28;20025;-74
2022/04/08 01:26:06;;;;;;;0.20;0.20;;;7.90;99.90;;;;;;5051709;28;20021;-74
2022/04/08 01:28:32;;;;;;;0.35;0.35;;;7.90;99.90;;;;;;5052008;28;20032;-74
2022/04/08 01:30:58;;;;;;;0.10;0.10;;;7.90;99.90;;;;;;5051899;28;20540;-74
2022/04/08 01:33:24;;;;;;;0.00;0.00;;;7.90;99.90;;;;;;5051733;28;20104;-74
2022/04/08 01:35:50;;;;;;;0.10;0.10;;;7.90;99.90;;;;;;5033688;28;20377;-74
2022/04/08 01:38:15;;;;;;;0.00;0.00;;;8.00;99.90;;;;;;5052011;28;20025;-74
2022/04/08 01:40:41;;;;;;;0.10;0.10;;;8.00;99.90;;;;;;5051955;28;20053;-74
2022/04/08 01:43:07;;;;;;;0.00;0.00;;;8.00;99.90;;;;;;5052005;28;20091;-74
2022/04/08 01:45:32;;;;;;;0.10;0.10;;;8.00;99.90;;;;;;5051523;28;20032;-74
2022/04/08 01:47:58;;;;;;;0.10;0.10;;;8.10;99.90;;;;;;5051642;28;20050;-74
2022/04/08 01:50:24;;;;;;;0.10;0.10;;;8.00;99.90;;;;;;5033985;28;20021;-74
2022/04/08 01:52:50;;;;;;;0.10;0.10;;;8.00;99.90;;;;;;5033856;28;20086;-74
2022/04/08 01:55:15;;;;;;;0.10;0.10;;;7.90;99.90;;;;;;5051578;28;20533;-74
2022/04/08 01:57:42;;;;;;;0.10;0.10;;;7.90;99.90;;;;;;5051416;28;20468;-74
2022/04/08 02:00:09;;;;;;;0.17;0.17;;;7.80;99.90;;;;;;5033611;28;20025;-74
2022/04/08 02:02:35;;;;;;;0.10;0.10;;;7.80;99.90;;;;;;5065590;22;20419;-76
2022/04/08 02:05:02;;;;;;;0.50;0.17;;;7.90;99.90;;;;;;5051399;28;20079;-76
2022/04/08 02:07:28;;;;;;;0.10;0.10;;;7.90;99.90;;;;;;5017064;28;20116;-76
2022/04/08 02:09:54;;;;;;;0.05;0.05;;;7.80;99.90;;;;;;5051487;28;20105;-76
2022/04/08 02:12:20;;;;;;;0.10;0.10;;;7.90;99.90;;;;;;5051415;28;20032;-76
2022/04/08 02:14:46;;;;;;;0.00;0.00;;;8.10;99.90;;;;;;5051554;28;20392;-76
2022/04/08 02:17:12;;;;;;;0.65;0.10;;;8.20;99.90;;;;;;5051205;28;20025;-76
2022/04/08 02:19:38;;;;;;;0.10;0.10;;;8.00;99.90;;;;;;5051735;28;20033;-76
2022/04/08 02:22:05;;;;;;;0.17;0.17;;;7.90;99.90;;;;;;5033605;28;20020;-77
2022/04/08 02:24:32;;;;;;;0.13;0.13;;;7.80;99.90;;;;;;5051402;28;20029;-76
2022/04/08 02:26:58;;;;;;;0.20;0.20;;;7.60;99.90;;;;;;5051303;28;20021;-76
2022/04/08 02:29:24;;;;;;;0.15;0.15;;;7.60;99.90;;;;;;5054001;28;20104;-76
2022/04/08 02:31:50;;;;;;;1.65;0.28;;;7.60;99.90;;;;;;5054901;28;20025;-76
2022/04/08 02:34:17;;;;;;;1.40;1.30;;;7.50;99.90;;;;;;5036969;28;20037;-76
2022/04/08 02:36:43;;;;;;;0.25;0.25;;;7.30;99.90;;;;;;5054681;28;20032;-76
2022/04/08 02:39:10;;;;;;;0.25;0.25;;;7.30;99.90;;;;;;5054795;28;20472;-76
2022/04/08 02:41:36;;;;;;;3.67;0.50;;;7.40;99.90;;;;;;5020337;28;20522;-76
2022/04/08 02:44:02;;;;;;;0.40;0.40;;;7.40;99.90;;;;;;5054719;28;20021;-76
2022/04/08 02:46:27;;;;;;;0.20;0.20;;;7.30;99.90;;;;;;5020205;28;20071;-76
2022/04/08 02:48:53;;;;;;;0.13;0.13;;;7.20;99.90;;;;;;5054654;28;20112;-76
2022/04/08 02:51:19;;;;;;;5.05;0.30;;;7.30;99.90;;;;;;5036725;28;20115;-76
2022/04/08 02:53:45;;;;;;;1.00;0.30;;;7.30;99.90;;;;;;5054560;28;20474;-76
2022/04/08 02:56:10;;;;;;;0.47;0.35;;;7.30;99.90;;;;;;5054244;28;20032;-76
2022/04/08 02:58:37;;;;;;;0.13;0.13;;;7.30;99.90;;;;;;5054326;28;20025;-76
2022/04/08 03:01:03;;;;;;;0.10;0.10;;;7.20;99.90;;;;;;5054159;28;20033;-77
2022/04/08 03:03:30;;;;;;;0.10;0.10;;;7.20;99.90;;;;;;5036388;28;20060;-76
2022/04/08 03:05:57;;;;;;;2.70;0.15;;;7.30;99.90;;;;;;5054171;28;20036;-76
2022/04/08 03:08:22;;;;;;;0.32;0.20;;;7.30;99.90;;;;;;5054438;28;20017;-76
2022/04/08 03:10:49;;;;;;;2.05;1.33;;;7.40;99.90;;;;;;5036388;28;20393;-76
2022/04/08 03:13:14;;;;;;;0.10;0.10;;;7.30;99.90;;;;;;5036431;28;20437;-76
2022/04/08 03:15:40;;;;;;;0.13;0.13;;;7.10;99.90;;;;;;5036064;28;20137;-76
2022/04/08 03:18:06;;;;;;;1.45;0.28;;;7.20;99.90;;;;;;5053951;28;20091;-76
2022/04/08 03:20:32;;;;;;;0.10;0.10;;;7.20;99.90;;;;;;5054183;28;20021;-76
2022/04/08 03:22:58;;;;;;;0.20;0.20;;;7.20;99.90;;;;;;5054054;28;20017;-76
2022/04/08 03:25:23;;;;;;;1.55;0.68;;;7.10;99.90;;;;;;5053938;28;20048;-76
2022/04/08 03:27:49;;;;;;;1.17;0.73;;;7.20;99.90;;;;;;5053761;28;20021;-77
2022/04/08 03:30:15;;;;;;;0.55;0.52;;;7.00;99.90;;;;;;5019428;28;20049;-76
2022/04/08 03:32:41;;;;;;;0.10;0.10;;;7.10;99.90;;;;;;5036075;28;20110;-76
2022/04/08 03:35:07;;;;;;;0.10;0.10;;;7.10;99.90;;;;;;5053690;28;20484;-76
2022/04/08 03:37:33;;;;;;;0.10;0.10;;;7.10;99.90;;;;;;5035795;28;20021;-76
2022/04/08 03:39:58;;;;;;;0.10;0.10;;;7.20;99.90;;;;;;5035142;28;20400;-76
2022/04/08 03:42:25;;;;;;;0.50;0.50;;;7.10;99.90;;;;;;5035708;28;20025;-76
2022/04/08 03:44:51;;;;;;;6.13;0.55;;;7.10;99.90;;;;;;5053420;28;20066;-76
2022/04/08 03:47:21;;;;;;;0.98;0.40;;;7.10;99.90;;;;;;5035547;28;20033;-76
2022/04/08 03:49:47;;;;;;;0.10;0.10;;;7.00;99.90;;;;;;5053566;28;20028;-76
2022/04/08 03:52:13;;;;;;;0.20;0.20;;;7.10;99.90;;;;;;5053490;28;20035;-76
2022/04/08 03:54:39;;;;;;;0.10;0.10;;;7.10;99.90;;;;;;5035706;28;20025;-76
2022/04/08 03:57:05;;;;;;;0.28;0.28;;;7.10;99.90;;;;;;5035320;28;20448;-76
2022/04/08 03:59:31;;;;;;;0.20;0.20;;;6.90;99.90;;;;;;5053144;28;20052;-76
2022/04/08 04:01:57;;;;;;;0.15;0.15;;;6.80;99.90;;;;;;5035182;28;20122;-76
2022/04/08 04:04:24;;;;;;;0.20;0.20;;;6.90;99.90;;;;;;5053248;28;20445;-76
2022/04/08 04:06:50;;;;;;;0.15;0.15;;;6.90;99.90;;;;;;5052988;28;20370;-76
2022/04/08 04:09:16;;;;;;;0.10;0.10;;;7.10;99.90;;;;;;5053091;28;20028;-76
2022/04/08 04:11:42;;;;;;;0.10;0.10;;;7.10;99.90;;;;;;5035194;28;20029;-77
2022/04/08 04:14:08;;;;;;;0.22;0.22;;;7.20;99.90;;;;;;5052846;28;20040;-76
2022/04/08 04:16:34;;;;;;;0.20;0.20;;;7.10;99.90;;;;;;5034835;28;20086;-76
2022/04/08 04:19:01;;;;;;;0.75;0.75;;;7.00;99.90;;;;;;5034864;28;20025;-76
2022/04/08 04:21:26;;;;;;;0.10;0.10;;;6.80;99.90;;;;;;5052876;28;20123;-76
2022/04/08 04:23:52;;;;;;;0.22;0.22;;;6.80;99.90;;;;;;5052936;28;20021;-76
2022/04/08 04:26:18;;;;;;;0.63;0.28;;;6.80;99.90;;;;;;5052597;28;20327;-76
2022/04/08 04:28:43;;;;;;;0.10;0.10;;;6.80;99.90;;;;;;5052614;28;20028;-76
2022/04/08 04:31:09;;;;;;;0.20;0.20;;;6.80;99.90;;;;;;5052690;28;20493;-76
2022/04/08 04:33:35;;;;;;;7.18;1.20;;;6.90;99.90;;;;;;5034652;28;20039;-76
2022/04/08 04:36:01;;;;;;;0.43;0.43;;;6.80;99.90;;;;;;5052407;28;20033;-76
2022/04/08 04:38:27;;;;;;;0.20;0.20;;;6.80;99.90;;;;;;5052526;28;20076;-76
2022/04/08 04:40:53;;;;;;;0.10;0.10;;;6.80;99.90;;;;;;5052516;28;20440;-76
2022/04/08 04:43:18;;;;;;;0.30;0.30;;;6.80;99.90;;;;;;5052347;28;20081;-76
2022/04/08 04:45:44;;;;;;;0.25;0.25;;;6.90;99.90;;;;;;5052181;28;20032;-76
2022/04/08 04:48:11;;;;;;;0.20;0.20;;;6.90;99.90;;;;;;5052343;28;20025;-76
2022/04/08 04:50:38;;;;;;;7.65;0.52;;;7.00;99.90;;;;;;5052395;28;20393;-76
2022/04/08 04:53:04;;;;;;;0.10;0.10;;;7.00;99.90;;;;;;5033464;28;20032;-76
2022/04/08 04:55:30;;;;;;;0.15;0.15;;;6.90;99.90;;;;;;5052101;28;20017;-77
2022/04/08 04:57:56;;;;;;;0.10;0.10;;;6.90;99.90;;;;;;5017533;28;20067;-76
2022/04/08 05:00:22;;;;;;;0.10;0.10;;;6.80;99.90;;;;;;5052111;28;20021;-76
2022/04/08 05:02:48;;;;;;;0.20;0.20;;;6.90;99.90;;;;;;5034252;28;20108;-76
2022/04/08 05:05:14;;;;;;;0.13;0.13;;;6.80;99.90;;;;;;5034267;28;20076;-76
2022/04/08 05:07:40;;;;;;;0.10;0.10;;;6.80;99.90;;;;;;5051883;28;20021;-76
2022/04/08 05:10:06;;;;;;;0.30;0.30;;;6.90;99.90;;;;;;5034196;28;20378;-76
2022/04/08 05:12:35;;;;;;;0.13;0.13;;;7.00;99.90;;;;;;5034089;28;20485;-76
2022/04/08 05:15:09;;;;;;;0.35;0.35;;;7.10;99.90;;;;;;5051881;28;20078;-76
2022/04/08 05:17:36;;;;;;;0.10;0.10;;;7.20;99.90;;;;;;5033847;28;20039;-75
2022/04/08 05:20:03;;;;;;;2.90;1.75;;;7.10;99.90;;;;;;5050586;28;20162;-76
2022/04/08 05:22:28;;;;;;;0.25;0.25;;;7.00;99.90;;;;;;5050612;28;20485;-76
2022/04/08 05:24:54;;;;;;;0.10;0.10;;;7.00;99.90;;;;;;5050215;28;20036;-77
2022/04/08 05:27:20;;;;;;;0.10;0.10;;;7.00;99.90;;;;;;5059399;28;20070;-76
2022/04/08 05:29:45;;;;;;;0.17;0.17;;;7.10;99.90;;;;;;5047818;28;20023;-76
2022/04/08 05:32:11;;;;;;;0.30;0.30;;;7.30;99.90;;;;;;5028535;28;20052;-75
2022/04/08 05:34:37;;;;;;;0.10;0.10;;;7.10;99.90;;;;;;5038258;28;20020;-75
2022/04/08 05:37:03;;;;;;;0.70;0.70;;;7.00;99.90;;;;;;5048956;28;20029;-75
2022/04/08 05:39:28;;;;;;;0.20;0.20;;;7.00;99.90;;;;;;5071477;28;20025;-75
2022/04/08 05:41:54;;;;;;;0.10;0.10;;;7.00;99.90;;;;;;5071521;28;20027;-76
2022/04/08 05:44:20;;;;;;;0.10;0.10;;;7.10;99.90;;;;;;5036000;28;20052;-75
2022/04/08 05:46:45;;;;;;;0.10;0.10;;;7.00;99.90;;;;;;5070970;28;20082;-75
2022/04/08 05:49:11;;;;;;;0.55;0.32;;;6.90;99.90;;;;;;5053247;28;20096;-75
2022/04/08 05:51:37;;;;;;;0.75;0.38;;;7.00;99.90;;;;;;5060798;28;20029;-75
2022/04/08 05:54:03;;;;;;;4.03;1.35;;;7.00;99.90;;;;;;5048782;28;20395;-75
2022/04/08 05:56:28;;;;;;;0.10;0.10;;;6.90;99.90;;;;;;5032969;28;20029;-75
2022/04/08 05:58:54;;;;;;;0.20;0.20;;;6.90;99.90;;;;;;5054485;28;20108;-75
2022/04/08 06:01:20;;;;;;;0.32;0.32;;;7.00;99.90;;;;;;5053324;28;20484;-75
2022/04/08 06:03:45;;;;;;;1.20;0.40;;;7.10;99.90;;;;;;5055091;28;20443;-75
2022/04/08 06:06:11;;;;;;;0.20;0.20;;;7.00;99.90;;;;;;5058005;28;20099;-75
2022/04/08 06:08:37;;;;;;;0.20;0.20;;;7.00;99.90;;;;;;5057141;28;20387;-75
2022/04/08 06:11:02;;;;;;;0.10;0.10;;;7.10;99.90;;;;;;5067507;28;20097;-76
2022/04/08 06:13:28;;;;;;;0.10;0.10;;;7.00;99.90;;;;;;5059160;28;20112;-75
2022/04/08 06:15:55;;;;;;;0.17;0.17;;;6.90;99.90;;;;;;5055538;28;20033;-76
2022/04/08 06:18:21;;;;;;;0.20;0.20;;;6.90;99.90;;;;;;5053685;28;20017;-75
2022/04/08 06:20:47;;;;;;;0.77;0.30;;;6.90;99.90;;;;;;5055102;28;20135;-75
2022/04/08 06:23:13;;;;;;;0.35;0.28;;;6.90;99.90;;;;;;5020261;28;20079;-75
2022/04/08 06:25:38;;;;;;;0.10;0.10;;;6.90;99.90;;;;;;5049799;28;20420;-75
2022/04/08 06:28:06;;;;;;;0.20;0.20;;;6.80;99.90;;;;;;5061546;28;20072;-75
2022/04/08 06:30:33;;;;;;;0.17;0.17;;;6.90;99.90;;;;;;5036758;28;20024;-76
2022/04/08 06:32:59;;;;;;;0.30;0.30;;;6.90;99.90;;;;;;5038316;28;20027;-75
2022/04/08 06:35:25;;;;;;;0.20;0.20;;;6.80;99.90;;;;;;5045342;28;20036;-77
2022/04/08 06:37:56;;;;;;;0.10;0.10;;;7.00;99.90;;;;;;5067048;28;20388;-76
2022/04/08 06:40:22;;;;;;;0.13;0.13;;;7.10;99.90;;;;;;5039927;28;20494;-76
2022/04/08 06:42:48;;;;;;;0.25;0.25;;;7.10;99.90;;;;;;5056074;28;20108;-76
2022/04/08 06:45:13;;;;;;;0.10;0.10;;;7.10;99.90;;;;;;5036317;28;20020;-76
2022/04/08 06:47:46;;;;;;;0.10;0.10;;;7.10;99.90;;;;;;5053702;28;20533;-76
2022/04/08 06:50:12;;;;;;;0.50;0.50;;;7.20;99.90;;;;;;5052752;28;20109;-76
2022/04/08 06:52:38;;;;;;;0.20;0.20;;;7.10;99.90;;;;;;5035718;28;20585;-75
2022/04/08 06:55:04;;;;;;;0.10;0.10;;;7.10;99.90;;;;;;5036173;28;20111;-76
2022/04/08 06:57:30;;;;;;;0.10;0.10;;;7.10;99.90;;;;;;5036312;28;20125;-76
2022/04/08 06:59:56;;;;;;;0.03;0.03;;;7.30;99.90;;;;;;5033858;28;20494;-76
2022/04/08 07:02:21;;;;;;;0.20;0.20;;;7.40;99.90;;;;;;5054171;28;20067;-75
2022/04/08 07:04:48;;;;;;;0.10;0.10;;;7.50;99.90;;;;;;5018293;28;20057;-75
2022/04/08 07:07:15;;;;;;;0.20;0.20;;;7.60;99.90;;;;;;5047850;28;20093;-75
2022/04/08 07:09:40;;;;;;;0.15;0.15;;;7.70;99.90;;;;;;5052762;28;20385;-76
2022/04/08 07:12:06;;;;;;;0.10;0.10;;;7.80;99.90;;;;;;5052703;28;20025;-76
2022/04/08 07:14:32;;;;;;;0.10;0.10;;;7.70;99.90;;;;;;5052056;28;20072;-76
2022/04/08 07:16:58;;;;;;;0.22;0.22;;;7.60;99.90;;;;;;5052561;28;20028;-75
2022/04/08 07:19:24;;;;;;;0.10;0.10;;;7.60;99.90;;;;;;5054128;28;20087;-75
2022/04/08 07:21:49;;;;;;;0.13;0.13;;;7.70;99.90;;;;;;5040376;28;20354;-75
2022/04/08 07:24:15;;;;;;;0.10;0.10;;;7.70;99.90;;;;;;5032927;28;20036;-76
2022/04/08 07:26:41;;;;;;;0.20;0.20;;;7.90;99.90;;;;;;5039994;28;20029;-75
2022/04/08 07:29:07;;;;;;;0.15;0.15;;;7.80;99.90;;;;;;5032814;28;20032;-76
2022/04/08 07:31:34;;;;;;;0.40;0.40;;;8.00;99.90;;;;;;5041379;28;20102;-76
2022/04/08 07:34:00;;;;;;;0.25;0.25;;;8.00;99.90;;;;;;5041779;28;20051;-76
2022/04/08 07:36:26;;;;;;;0.10;0.10;;;8.10;99.90;;;;;;5040988;28;20052;-76
2022/04/08 07:38:52;;;;;;;1.35;0.35;;;8.20;99.90;;;;;;5030864;28;20036;-76
2022/04/08 07:41:18;;;;;;;0.57;0.20;;;8.00;99.90;;;;;;5031331;28;20021;-75
2022/04/08 07:43:44;;;;;;;0.20;0.20;;;8.00;99.90;;;;;;5041922;28;20091;-76
2022/04/08 07:46:09;;;;;;;0.10;0.10;;;8.10;99.90;;;;;;5015560;28;20037;-76
2022/04/08 07:48:35;;;;;;;0.10;0.10;;;8.10;99.90;;;;;;5032824;28;20508;-76
2022/04/08 07:51:01;;;;;;;0.10;0.10;;;8.10;99.90;;;;;;5016110;28;20041;-76
2022/04/08 07:53:27;;;;;;;0.10;0.10;;;8.30;99.90;;;;;;5033650;28;20044;-76
2022/04/08 07:55:53;;;;;;;0.10;0.10;;;8.30;99.90;;;;;;5041262;28;20082;-76
2022/04/08 07:58:18;;;;;;;0.10;0.10;;;8.30;99.90;;;;;;5031007;28;20481;-76
2022/04/08 08:00:44;;;;;;;0.32;0.32;;;8.50;99.90;;;;;;5030993;28;20036;-76
2022/04/08 08:03:11;;;;;;;0.10;0.10;;;8.70;99.90;;;;;;5034493;28;20021;-76
2022/04/08 08:05:37;;;;;;;0.10;0.10;;;8.90;99.90;;;;;;5015377;28;20381;-76
2022/04/08 08:08:03;;;;;;;0.20;0.20;;;8.80;99.90;;;;;;5029226;28;20091;-76
2022/04/08 08:10:31;;;;;;;0.10;0.10;;;8.90;99.90;;;;;;5040981;28;20480;-77
2022/04/08 08:13:00;;;;;;;0.10;0.10;;;8.90;99.90;;;;;;5031777;28;20032;-77
2022/04/08 08:15:26;;;;;;;0.10;0.10;;;8.90;99.90;;;;;;5030103;28;20029;-76
2022/04/08 08:17:52;;;;;;;0.10;0.10;;;9.10;99.90;;;;;;5040023;28;20116;-76
2022/04/08 08:20:19;;;;;;;0.10;0.10;;;9.20;99.90;;;;;;5041247;28;20082;-76
2022/04/08 08:22:45;;;;;;;0.15;0.15;;;9.40;99.90;;;;;;5041125;28;20033;-76
2022/04/08 08:25:12;;;;;;;0.10;0.10;;;9.60;99.90;;;;;;5031104;28;20452;-76
2022/04/08 08:27:42;;;;;;;0.10;0.10;;;9.70;99.90;;;;;;5031320;28;20033;-76
2022/04/08 08:30:12;;;;;;;0.10;0.10;;;9.60;99.90;;;;;;5032910;28;20153;-76
2022/04/08 08:32:40;;;;;;;0.10;0.10;;;9.50;99.90;;;;;;5031485;28;20598;-76
2022/04/08 08:35:11;;;;;;;0.10;0.10;;;9.50;99.90;;;;;;5041084;28;20029;-76
2022/04/08 08:37:36;;;;;;;0.20;0.20;;;9.60;99.90;;;;;;5030695;28;20060;-76
2022/04/08 08:40:03;;;;;;;0.20;0.20;;;9.50;99.90;;;;;;5031189;28;20036;-76
2022/04/08 08:42:29;;;;;;;0.20;0.20;;;9.50;99.90;;;;;;5031546;28;20049;-76
2022/04/08 08:44:56;;;;;;;0.10;0.10;;;9.60;99.90;;;;;;5030040;28;20523;-76
2022/04/08 08:47:22;;;;;;;0.10;0.10;;;9.50;99.90;;;;;;5040516;28;20033;-76
2022/04/08 08:49:52;;;;;;;0.10;0.10;;;9.60;99.90;;;;;;5014602;28;20032;-76
2022/04/08 08:52:18;;;;;;;0.10;0.10;;;9.70;99.90;;;;;;5040756;28;20040;-76
2022/04/08 08:54:47;;;;;;;0.10;0.10;;;9.80;99.90;;;;;;5040565;28;21275;-76
2022/04/08 08:57:18;;;;;;;0.10;0.10;;;9.90;99.90;;;;;;5029005;28;20041;-76
2022/04/08 08:59:44;;;;;;;0.10;0.10;;;9.80;99.90;;;;;;5030309;28;20041;-76
2022/04/08 09:02:12;;;;;;;0.10;0.10;;;9.90;99.90;;;;;;5040533;28;20062;-77
2022/04/08 09:04:42;;;;;;;1.38;0.47;;;9.90;99.90;;;;;;5029639;28;20025;-76
2022/04/08 09:07:19;;;;;;;0.10;0.10;;;9.90;99.90;;;;;;5026599;28;20029;-76
2022/04/08 09:09:52;;;;;;;0.10;0.10;;;9.80;99.90;;;;;;5029447;28;20033;-76
2022/04/08 09:12:17;;;;;;;0.10;0.10;;;9.80;99.90;;;;;;5040521;28;20049;-76
2022/04/08 09:14:54;;;;;;;0.10;0.10;;;9.90;99.90;;;;;;5040313;28;20056;-77
2022/04/08 09:17:21;;;;;;;0.50;0.50;;;10.00;99.90;;;;;;5013392;28;20133;-76
2022/04/08 09:19:51;;;;;;;0.15;0.15;;;10.00;99.90;;;;;;5040397;28;20100;-78
2022/04/08 09:22:18;;;;;;;0.20;0.20;;;10.00;99.90;;;;;;5039241;28;20029;-77
2022/04/08 09:24:44;;;;;;;0.10;0.10;;;9.90;99.90;;;;;;5039841;28;20071;-78
2022/04/08 09:27:11;;;;;;;0.10;0.10;;;10.00;99.90;;;;;;5030570;28;20029;-78
2022/04/08 09:29:37;;;;;;;0.10;0.10;;;9.90;99.90;;;;;;5040974;28;20037;-78
2022/04/08 09:32:11;;;;;;;0.10;0.10;;;9.90;99.90;;;;;;5031866;28;20042;-77
2022/04/08 09:34:38;;;;;;;0.20;0.20;;;10.00;99.90;;;;;;5040425;28;20033;-78
2022/04/08 09:37:15;;;;;;;0.10;0.10;;;10.00;99.90;;;;;;5080437;23;20473;-76
2022/04/08 09:40:03;;;;;;;0.10;0.10;;;10.00;99.90;;;;;;5017675;28;20117;-77
2022/04/08 09:42:46;;;;;;;0.10;0.10;;;9.80;99.90;;;;;;5019834;28;20033;-78
2022/04/08 09:45:13;;;;;;;0.20;0.20;;;9.90;99.90;;;;;;5017716;28;20032;-76
2022/04/08 09:47:40;;;;;;;0.10;0.10;;;10.20;99.90;;;;;;5034495;28;20048;-76
2022/04/08 09:50:10;;;;;;;0.13;0.13;;;10.30;99.90;;;;;;5018112;28;20029;-76
2022/04/08 09:52:39;;;;;;;0.20;0.20;;;10.50;99.90;;;;;;5018028;28;20026;-76
2022/04/08 09:55:07;;;;;;;0.10;0.10;;;10.40;99.90;;;;;;5001622;28;20033;-76
2022/04/08 09:57:37;;;;;;;0.43;0.43;;;10.40;99.90;;;;;;5036237;28;20049;-76
2022/04/08 10:00:04;;;;;;;0.20;0.20;;;10.40;99.90;;;;;;5018818;28;20107;-76
2022/04/08 10:02:33;;;;;;;0.20;0.20;;;10.40;99.90;;;;;;5035260;28;20025;-75
2022/04/08 10:04:59;;;;;;;0.10;0.10;;;10.40;99.90;;;;;;5017097;28;20025;-75
2022/04/08 10:07:27;;;;;;;0.10;0.10;;;10.70;99.90;;;;;;5017056;28;20021;-75
2022/04/08 10:10:10;;;;;;;0.10;0.10;;;10.90;99.90;;;;;;5034832;28;20040;-75
2022/04/08 10:13:03;;;;;;;0.20;0.20;;;11.00;99.90;;;;;;5017351;28;20022;-75
2022/04/08 10:15:40;;;;;;;0.20;0.20;;;10.90;99.90;;;;;;5034644;28;20443;-75
2022/04/08 10:18:06;;;;;;;0.10;0.10;;;10.90;99.90;;;;;;5034711;28;20022;-75
2022/04/08 10:20:33;;;;;;;0.20;0.20;;;11.00;99.90;;;;;;5034686;28;20041;-75
2022/04/08 10:23:17;;;;;;;0.20;0.20;;;11.10;99.90;;;;;;5035245;28;20036;-75
2022/04/08 10:25:47;;;;;;;0.20;0.20;;;11.00;99.90;;;;;;5000572;28;20065;-75
2022/04/08 10:28:13;;;;;;;0.15;0.15;;;11.20;99.90;;;;;;5016995;28;20084;-75
2022/04/08 10:30:46;;;;;;;0.20;0.20;;;11.20;99.90;;;;;;5034600;28;20053;-75
2022/04/08 10:33:13;;;;;;;0.30;0.30;;;11.30;99.90;;;;;;5017013;28;20109;-74
2022/04/08 10:35:52;;;;;;;0.15;0.15;;;11.30;99.90;;;;;;5034359;28;20025;-76
2022/04/08 10:38:18;;;;;;;0.20;0.20;;;11.30;99.90;;;;;;5016273;28;20373;-76
2022/04/08 10:40:53;;;;;;;0.20;0.20;;;11.30;99.90;;;;;;5016658;28;20028;-76
2022/04/08 10:43:19;;;;;;;0.10;0.10;;;11.50;99.90;;;;;;5016710;28;20427;-76
2022/04/08 10:45:56;;;;;;;0.10;0.10;;;11.40;99.90;;;;;;5033886;28;20021;-75
2022/04/08 10:48:30;;;;;;;0.20;0.20;;;11.40;99.90;;;;;;5034476;28;20060;-76
2022/04/08 10:51:10;;;;;;;0.20;0.20;;;11.50;99.90;;;;;;5034044;28;20041;-76
2022/04/08 10:53:41;;;;;;;0.20;0.20;;;11.70;99.90;;;;;;5016355;28;20026;-76
2022/04/08 10:56:14;;;;;;;0.22;0.20;;;11.90;99.90;;;;;;5000024;28;20032;-75
2022/04/08 10:58:45;;;;;;;0.10;0.10;;;12.00;99.90;;;;;;5032917;28;20505;-76
2022/04/08 11:01:23;;;;;;;0.20;0.20;;;12.00;99.90;;;;;;5014208;28;20121;-76
2022/04/08 11:04:00;;;;;;;0.17;0.17;;;12.00;99.90;;;;;;5015036;28;20017;-75
2022/04/08 11:06:28;;;;;;;0.17;0.17;;;12.00;99.90;;;;;;4997256;28;20381;-75
2022/04/08 11:08:53;;;;;;;0.22;0.22;;;12.20;99.90;;;;;;5042334;28;20028;-75
2022/04/08 11:11:30;;;;;;;0.10;0.10;;;12.10;99.90;;;;;;5054260;28;20033;-75
2022/04/08 11:13:57;;;;;;;0.50;0.50;;;12.10;99.90;;;;;;5053797;28;20025;-75
2022/04/08 11:16:23;;;;;;;0.20;0.20;;;12.20;99.90;;;;;;5012306;28;20030;-75
2022/04/08 11:18:49;;;;;;;0.30;0.30;;;12.30;99.90;;;;;;5034152;28;20029;-75
2022/04/08 11:21:21;;;;;;;0.20;0.20;;;12.40;99.90;;;;;;5015665;28;20021;-76
2022/04/08 11:24:02;;;;;;;;;;;12.30;99.90;;;;;;5016470;28;20025;-75
2022/04/08 11:26:30;;;;;;;0.10;0.10;;;12.40;99.90;;;;;;5033596;28;19905;-75
2022/04/08 11:29:07;;;;;;;0.20;0.20;;;12.50;99.90;;;;;;4999374;28;20371;-76
2022/04/08 11:31:33;;;;;;;0.10;0.10;;;12.70;99.90;;;;;;5033468;28;20029;-75
2022/04/08 11:34:02;;;;;;;0.10;0.10;;;12.90;99.90;;;;;;5033538;28;20489;-76
2022/04/08 11:36:28;;;;;;;0.10;0.10;;;13.20;99.90;;;;;;5033331;28;20055;-76
2022/04/08 11:38:53;;;;;;;0.10;0.10;;;13.20;99.90;;;;;;5015566;28;20356;-76
2022/04/08 11:41:20;;;;;;;0.10;0.10;;;13.40;99.90;;;;;;5033139;28;20029;-75
2022/04/08 11:43:47;;;;;;;0.10;0.10;;;13.40;99.90;;;;;;5012527;28;20388;-76
2022/04/08 11:46:14;;;;;;;0.20;0.20;;;13.50;99.90;;;;;;4996061;28;20114;-76
2022/04/08 11:48:40;;;;;;;0.10;0.10;;;13.40;99.90;;;;;;5013687;28;20561;-76
2022/04/08 11:51:06;;;;;;;0.85;0.60;;;13.50;99.90;;;;;;5024957;28;20372;-76
2022/04/08 11:53:45;;;;;;;0.10;0.10;;;13.50;99.90;;;;;;5033296;28;20033;-76
2022/04/08 11:56:11;;;;;;;0.38;0.38;;;13.50;99.90;;;;;;5033203;28;20044;-76
2022/04/08 11:58:37;;;;;;;0.10;0.10;;;13.50;99.90;;;;;;4999149;28;20507;-76
2022/04/08 12:01:03;;;;;;;0.20;0.20;;;13.30;99.90;;;;;;5031510;28;20025;-77
2022/04/08 12:03:32;;;;;;;0.20;0.20;;;13.30;99.90;;;;;;5015162;28;20044;-76
2022/04/08 12:06:00;;;;;;;0.20;0.20;;;13.20;99.90;;;;;;5032720;28;20021;-76
2022/04/08 12:08:27;;;;;;;0.20;0.20;;;13.10;99.90;;;;;;5018460;28;20013;-76
2022/04/08 12:10:59;;;;;;;0.20;0.20;;;13.10;99.90;;;;;;5016498;28;20030;-76
2022/04/08 12:13:29;;;;;;;0.10;0.10;;;13.20;99.90;;;;;;5013174;28;20085;-76
2022/04/08 12:15:57;;;;;;;0.10;0.10;;;13.40;99.90;;;;;;5018598;28;20040;-76
2022/04/08 12:18:32;;;;;;;0.10;0.10;;;13.50;99.90;;;;;;5033232;28;20021;-76
2022/04/08 12:21:00;;;;;;;2.92;2.72;;;13.30;99.90;;;;;;5032961;28;20057;-74
2022/04/08 12:23:27;;;;;;;0.10;0.10;;;13.40;99.90;;;;;;5033719;28;20025;-74
2022/04/08 12:25:58;;;;;;;0.10;0.10;;;13.30;99.90;;;;;;5032538;28;20049;-73
2022/04/08 12:28:28;;;;;;;0.10;0.10;;;13.20;99.90;;;;;;5031365;28;20020;-74
2022/04/08 12:30:54;;;;;;;0.45;0.45;;;13.40;99.90;;;;;;5033057;28;20030;-73
2022/04/08 12:33:20;;;;;;;0.20;0.20;;;13.40;99.90;;;;;;4998273;28;20076;-73
2022/04/08 12:35:46;;;;;;;0.22;0.22;;;13.40;99.90;;;;;;4998657;28;20053;-73
2022/04/08 12:38:19;;;;;;;0.10;0.10;;;13.30;99.90;;;;;;5032541;28;20452;-73
2022/04/08 12:40:49;;;;;;;0.17;0.17;;;13.50;99.90;;;;;;5030898;28;20476;-74
2022/04/08 12:43:15;;;;;;;0.40;0.40;;;13.60;99.90;;;;;;5030656;28;20048;-74
2022/04/08 12:45:41;;;;;;;0.30;0.30;;;13.50;99.90;;;;;;5031456;28;20030;-73
2022/04/08 12:48:08;;;;;;;0.10;0.10;;;13.60;99.90;;;;;;5031195;28;20049;-73
2022/04/08 12:50:33;;;;;;;0.30;0.30;;;13.70;99.90;;;;;;5033110;28;20063;-74
2022/04/08 12:53:00;;;;;;;0.35;0.25;;;13.90;99.90;;;;;;5032535;28;20053;-74
2022/04/08 12:55:26;;;;;;;0.20;0.20;;;13.90;99.90;;;;;;5032447;28;20449;-73